sensor_id;sensor_type;location;lat;lon;timestamp;temperature;humidity
12370;DHT22;6249;52.128;9.986;2023-04-07T00:01:17;6.50;95.20
12370;DHT22;6249;52.128;9.986;2023-04-07T00:04:40;6.40;95.90
12370;DHT22;6249;52.128;9.986;2023-04-07T00:08:00;6.30;96.40
12370;DHT22;6249;52.128;9.986;2023-04-07T00:11:21;6.20;96.10
12370;DHT22;6249;52.128;9.986;2023-04-07T00:14:42;6.10;96.50
12370;DHT22;6249;52.128;9.986;2023-04-07T00:18:02;6.10;96.40
12370;DHT22;6249;52.128;9.986;2023-04-07T00:21:25;6.10;96.30
12370;DHT22;6249;52.128;9.986;2023-04-07T00:24:48;6.10;96.10
12370;DHT22;6249;52.128;9.986;2023-04-07T00:28:12;6.00;96.40
12370;DHT22;6249;52.128;9.986;2023-04-07T00:31:32;5.90;96.60
12370;DHT22;6249;52.128;9.986;2023-04-07T00:34:55;5.90;96.80
12370;DHT22;6249;52.128;9.986;2023-04-07T00:38:16;5.80;96.80
12370;DHT22;6249;52.128;9.986;2023-04-07T00:41:37;5.80;97.10
12370;DHT22;6249;52.128;9.986;2023-04-07T00:45:00;5.80;97.10
12370;DHT22;6249;52.128;9.986;2023-04-07T00:48:20;5.90;96.50
12370;DHT22;6249;52.128;9.986;2023-04-07T00:51:44;5.90;96.20
12370;DHT22;6249;52.128;9.986;2023-04-07T00:55:05;5.90;96.30
12370;DHT22;6249;52.128;9.986;2023-04-07T00:58:26;5.90;96.60
12370;DHT22;6249;52.128;9.986;2023-04-07T01:05:23;5.90;96.50
12370;DHT22;6249;52.128;9.986;2023-04-07T01:08:59;5.80;96.10
12370;DHT22;6249;52.128;9.986;2023-04-07T01:15:51;5.90;96.40
12370;DHT22;6249;52.128;9.986;2023-04-07T01:19:48;5.80;96.00
12370;DHT22;6249;52.128;9.986;2023-04-07T01:23:19;5.80;96.80
12370;DHT22;6249;52.128;9.986;2023-04-07T01:26:43;5.60;97.00
12370;DHT22;6249;52.128;9.986;2023-04-07T01:30:10;5.60;97.70
12370;DHT22;6249;52.128;9.986;2023-04-07T01:33:33;5.50;97.40
12370;DHT22;6249;52.128;9.986;2023-04-07T01:36:55;5.40;97.60
12370;DHT22;6249;52.128;9.986;2023-04-07T01:40:17;5.30;97.80
12370;DHT22;6249;52.128;9.986;2023-04-07T01:43:40;5.30;98.00
12370;DHT22;6249;52.128;9.986;2023-04-07T01:47:04;5.30;98.00
12370;DHT22;6249;52.128;9.986;2023-04-07T01:50:27;5.30;97.80
12370;DHT22;6249;52.128;9.986;2023-04-07T01:53:51;5.30;98.10
12370;DHT22;6249;52.128;9.986;2023-04-07T01:57:12;5.30;98.00
12370;DHT22;6249;52.128;9.986;2023-04-07T02:00:33;5.30;98.20
12370;DHT22;6249;52.128;9.986;2023-04-07T02:07:29;5.20;98.00
12370;DHT22;6249;52.128;9.986;2023-04-07T02:10:54;5.10;98.10
12370;DHT22;6249;52.128;9.986;2023-04-07T02:14:15;5.20;98.30
12370;DHT22;6249;52.128;9.986;2023-04-07T02:17:39;5.10;98.50
12370;DHT22;6249;52.128;9.986;2023-04-07T02:21:03;5.10;98.70
12370;DHT22;6249;52.128;9.986;2023-04-07T02:24:27;5.10;98.50
12370;DHT22;6249;52.128;9.986;2023-04-07T02:27:50;5.10;98.40
12370;DHT22;6249;52.128;9.986;2023-04-07T02:31:11;5.10;98.30
12370;DHT22;6249;52.128;9.986;2023-04-07T02:34:35;5.10;98.30
12370;DHT22;6249;52.128;9.986;2023-04-07T02:37:55;5.00;98.60
12370;DHT22;6249;52.128;9.986;2023-04-07T02:41:16;5.00;98.60
12370;DHT22;6249;52.128;9.986;2023-04-07T02:44:37;4.90;98.80
12370;DHT22;6249;52.128;9.986;2023-04-07T02:48:00;5.00;99.40
12370;DHT22;6249;52.128;9.986;2023-04-07T02:51:22;4.80;99.40
12370;DHT22;6249;52.128;9.986;2023-04-07T02:54:43;4.60;99.90
12370;DHT22;6249;52.128;9.986;2023-04-07T02:58:08;4.60;99.90
12370;DHT22;6249;52.128;9.986;2023-04-07T03:01:33;4.50;99.90
12370;DHT22;6249;52.128;9.986;2023-04-07T03:04:55;4.50;99.90
12370;DHT22;6249;52.128;9.986;2023-04-07T03:08:18;4.40;99.90
12370;DHT22;6249;52.128;9.986;2023-04-07T03:11:43;4.40;99.90
12370;DHT22;6249;52.128;9.986;2023-04-07T03:15:06;4.30;99.90
12370;DHT22;6249;52.128;9.986;2023-04-07T03:18:29;4.20;99.90
12370;DHT22;6249;52.128;9.986;2023-04-07T03:21:50;4.20;99.90
12370;DHT22;6249;52.128;9.986;2023-04-07T03:25:11;4.10;99.90
12370;DHT22;6249;52.128;9.986;2023-04-07T03:28:33;4.00;99.90
12370;DHT22;6249;52.128;9.986;2023-04-07T03:31:54;3.80;99.90
12370;DHT22;6249;52.128;9.986;2023-04-07T03:35:17;3.70;99.90
12370;DHT22;6249;52.128;9.986;2023-04-07T03:38:40;3.60;99.90
12370;DHT22;6249;52.128;9.986;2023-04-07T03:42:00;3.50;99.90
12370;DHT22;6249;52.128;9.986;2023-04-07T03:45:21;3.50;99.90
12370;DHT22;6249;52.128;9.986;2023-04-07T03:48:42;3.40;99.90
12370;DHT22;6249;52.128;9.986;2023-04-07T03:52:04;3.30;99.90
12370;DHT22;6249;52.128;9.986;2023-04-07T03:55:24;3.20;99.90
12370;DHT22;6249;52.128;9.986;2023-04-07T03:58:46;3.20;99.90
12370;DHT22;6249;52.128;9.986;2023-04-07T04:02:10;3.10;99.90
12370;DHT22;6249;52.128;9.986;2023-04-07T04:05:33;3.10;99.90
12370;DHT22;6249;52.128;9.986;2023-04-07T04:08:56;3.10;99.90
12370;DHT22;6249;52.128;9.986;2023-04-07T04:12:19;3.20;99.90
12370;DHT22;6249;52.128;9.986;2023-04-07T04:15:39;3.20;99.90
12370;DHT22;6249;52.128;9.986;2023-04-07T04:19:00;3.30;99.90
12370;DHT22;6249;52.128;9.986;2023-04-07T04:22:22;3.30;99.90
12370;DHT22;6249;52.128;9.986;2023-04-07T04:25:43;3.30;99.90
12370;DHT22;6249;52.128;9.986;2023-04-07T04:29:03;3.30;99.90
12370;DHT22;6249;52.128;9.986;2023-04-07T04:32:24;3.30;99.90
12370;DHT22;6249;52.128;9.986;2023-04-07T04:35:47;3.40;99.90
12370;DHT22;6249;52.128;9.986;2023-04-07T04:39:08;3.50;99.90
12370;DHT22;6249;52.128;9.986;2023-04-07T04:42:31;3.50;99.90
12370;DHT22;6249;52.128;9.986;2023-04-07T04:45:53;4.80;99.90
12370;DHT22;6249;52.128;9.986;2023-04-07T04:49:16;3.50;99.90
12370;DHT22;6249;52.128;9.986;2023-04-07T04:52:38;3.50;99.90
12370;DHT22;6249;52.128;9.986;2023-04-07T04:56:01;3.60;99.90
12370;DHT22;6249;52.128;9.986;2023-04-07T04:59:23;3.50;99.90
12370;DHT22;6249;52.128;9.986;2023-04-07T05:02:46;3.40;99.90
12370;DHT22;6249;52.128;9.986;2023-04-07T05:06:11;3.30;99.90
12370;DHT22;6249;52.128;9.986;2023-04-07T05:09:33;3.20;99.90
12370;DHT22;6249;52.128;9.986;2023-04-07T05:12:59;3.20;99.90
12370;DHT22;6249;52.128;9.986;2023-04-07T05:16:22;3.20;99.90
12370;DHT22;6249;52.128;9.986;2023-04-07T05:19:42;3.20;99.90
12370;DHT22;6249;52.128;9.986;2023-04-07T05:23:05;3.30;99.90
12370;DHT22;6249;52.128;9.986;2023-04-07T05:26:26;3.20;99.90
12370;DHT22;6249;52.128;9.986;2023-04-07T05:29:48;3.20;99.90
12370;DHT22;6249;52.128;9.986;2023-04-07T05:33:09;3.20;99.90
12370;DHT22;6249;52.128;9.986;2023-04-07T05:36:30;3.10;99.90
12370;DHT22;6249;52.128;9.986;2023-04-07T05:39:55;3.10;99.90
12370;DHT22;6249;52.128;9.986;2023-04-07T05:43:18;2.90;99.90
12370;DHT22;6249;52.128;9.986;2023-04-07T05:46:38;2.90;99.90
12370;DHT22;6249;52.128;9.986;2023-04-07T05:49:59;2.80;99.90
12370;DHT22;6249;52.128;9.986;2023-04-07T05:53:20;2.80;99.90
12370;DHT22;6249;52.128;9.986;2023-04-07T05:56:41;2.80;99.90
12370;DHT22;6249;52.128;9.986;2023-04-07T06:00:02;2.80;99.90
12370;DHT22;6249;52.128;9.986;2023-04-07T06:03:26;2.80;99.90
12370;DHT22;6249;52.128;9.986;2023-04-07T06:06:46;2.90;99.90
12370;DHT22;6249;52.128;9.986;2023-04-07T06:10:07;3.10;99.90
12370;DHT22;6249;52.128;9.986;2023-04-07T06:13:28;3.30;99.90
12370;DHT22;6249;52.128;9.986;2023-04-07T06:16:48;3.60;99.90
12370;DHT22;6249;52.128;9.986;2023-04-07T06:20:12;3.80;99.90
12370;DHT22;6249;52.128;9.986;2023-04-07T06:23:32;4.10;99.90
12370;DHT22;6249;52.128;9.986;2023-04-07T06:26:54;4.20;99.90
12370;DHT22;6249;52.128;9.986;2023-04-07T06:30:16;4.40;99.90
12370;DHT22;6249;52.128;9.986;2023-04-07T06:33:36;4.50;99.90
12370;DHT22;6249;52.128;9.986;2023-04-07T06:36:59;4.70;99.90
12370;DHT22;6249;52.128;9.986;2023-04-07T06:40:23;4.80;99.90
12370;DHT22;6249;52.128;9.986;2023-04-07T06:43:47;4.90;99.90
12370;DHT22;6249;52.128;9.986;2023-04-07T06:47:10;5.00;99.90
12370;DHT22;6249;52.128;9.986;2023-04-07T06:50:31;5.10;99.90
12370;DHT22;6249;52.128;9.986;2023-04-07T06:53:52;5.20;99.90
12370;DHT22;6249;52.128;9.986;2023-04-07T06:57:12;5.40;99.90
12370;DHT22;6249;52.128;9.986;2023-04-07T07:00:35;5.40;99.90
12370;DHT22;6249;52.128;9.986;2023-04-07T07:03:56;5.40;99.90
12370;DHT22;6249;52.128;9.986;2023-04-07T07:07:16;5.40;99.90
12370;DHT22;6249;52.128;9.986;2023-04-07T07:10:40;5.40;99.90
12370;DHT22;6249;52.128;9.986;2023-04-07T07:14:00;5.50;99.90
12370;DHT22;6249;52.128;9.986;2023-04-07T07:17:21;5.50;99.90
12370;DHT22;6249;52.128;9.986;2023-04-07T07:20:42;5.90;99.70
12370;DHT22;6249;52.128;9.986;2023-04-07T07:24:05;6.30;98.60
12370;DHT22;6249;52.128;9.986;2023-04-07T07:27:25;6.80;97.40
12370;DHT22;6249;52.128;9.986;2023-04-07T07:30:48;7.20;95.90
12370;DHT22;6249;52.128;9.986;2023-04-07T07:34:09;7.30;97.30
12370;DHT22;6249;52.128;9.986;2023-04-07T07:37:32;7.60;96.50
12370;DHT22;6249;52.128;9.986;2023-04-07T07:40:52;7.60;95.70
12370;DHT22;6249;52.128;9.986;2023-04-07T07:44:15;7.60;96.30
12370;DHT22;6249;52.128;9.986;2023-04-07T07:47:36;7.80;96.30
12370;DHT22;6249;52.128;9.986;2023-04-07T07:50:59;7.80;96.70
12370;DHT22;6249;52.128;9.986;2023-04-07T07:54:22;8.10;96.00
12370;DHT22;6249;52.128;9.986;2023-04-07T07:57:44;8.50;93.90
12370;DHT22;6249;52.128;9.986;2023-04-07T08:01:05;8.60;93.30
12370;DHT22;6249;52.128;9.986;2023-04-07T08:04:28;8.90;94.00
12370;DHT22;6249;52.128;9.986;2023-04-07T08:07:52;9.30;92.50
12370;DHT22;6249;52.128;9.986;2023-04-07T08:11:18;9.50;91.40
12370;DHT22;6249;52.128;9.986;2023-04-07T08:14:41;9.90;90.90
12370;DHT22;6249;52.128;9.986;2023-04-07T08:18:04;10.40;88.20
12370;DHT22;6249;52.128;9.986;2023-04-07T08:21:25;10.60;85.90
12370;DHT22;6249;52.128;9.986;2023-04-07T08:24:49;10.90;84.30
12370;DHT22;6249;52.128;9.986;2023-04-07T08:28:12;11.10;84.30
12370;DHT22;6249;52.128;9.986;2023-04-07T08:31:33;11.30;84.20
12370;DHT22;6249;52.128;9.986;2023-04-07T08:34:55;11.80;83.90
12370;DHT22;6249;52.128;9.986;2023-04-07T08:38:16;12.10;82.70
12370;DHT22;6249;52.128;9.986;2023-04-07T08:41:39;12.60;80.80
12370;DHT22;6249;52.128;9.986;2023-04-07T08:45:05;12.90;79.40
12370;DHT22;6249;52.128;9.986;2023-04-07T08:48:29;13.00;75.00
12370;DHT22;6249;52.128;9.986;2023-04-07T08:51:54;13.10;76.30
12370;DHT22;6249;52.128;9.986;2023-04-07T08:55:20;13.20;73.50
12370;DHT22;6249;52.128;9.986;2023-04-07T08:58:41;13.40;71.40
12370;DHT22;6249;52.128;9.986;2023-04-07T09:02:04;13.40;70.30
12370;DHT22;6249;52.128;9.986;2023-04-07T09:05:25;13.60;66.50
12370;DHT22;6249;52.128;9.986;2023-04-07T09:08:46;13.60;63.60
12370;DHT22;6249;52.128;9.986;2023-04-07T09:12:09;13.80;65.30
12370;DHT22;6249;52.128;9.986;2023-04-07T09:15:31;13.90;64.10
12370;DHT22;6249;52.128;9.986;2023-04-07T09:18:54;14.00;65.00
12370;DHT22;6249;52.128;9.986;2023-04-07T09:22:14;14.20;66.10
12370;DHT22;6249;52.128;9.986;2023-04-07T09:25:37;14.30;61.50
12370;DHT22;6249;52.128;9.986;2023-04-07T09:29:01;14.40;60.70
12370;DHT22;6249;52.128;9.986;2023-04-07T09:32:39;14.50;63.20
12370;DHT22;6249;52.128;9.986;2023-04-07T09:36:01;14.60;60.80
12370;DHT22;6249;52.128;9.986;2023-04-07T09:39:24;14.70;60.90
12370;DHT22;6249;52.128;9.986;2023-04-07T09:42:45;14.70;62.20
12370;DHT22;6249;52.128;9.986;2023-04-07T09:46:12;15.00;61.90
12370;DHT22;6249;52.128;9.986;2023-04-07T09:49:47;15.50;62.50
12370;DHT22;6249;52.128;9.986;2023-04-07T09:53:11;15.80;58.30
12370;DHT22;6249;52.128;9.986;2023-04-07T09:56:32;15.90;56.90
12370;DHT22;6249;52.128;9.986;2023-04-07T09:59:53;14.90;56.60
12370;DHT22;6249;52.128;9.986;2023-04-07T10:03:15;16.50;55.50
12370;DHT22;6249;52.128;9.986;2023-04-07T10:06:36;16.70;53.70
12370;DHT22;6249;52.128;9.986;2023-04-07T10:10:07;16.70;53.60
12370;DHT22;6249;52.128;9.986;2023-04-07T10:13:33;17.10;55.70
12370;DHT22;6249;52.128;9.986;2023-04-07T10:16:54;17.40;54.40
12370;DHT22;6249;52.128;9.986;2023-04-07T10:20:17;18.00;51.50
12370;DHT22;6249;52.128;9.986;2023-04-07T10:27:16;18.50;50.20
12370;DHT22;6249;52.128;9.986;2023-04-07T10:30:39;18.60;51.20
12370;DHT22;6249;52.128;9.986;2023-04-07T10:34:00;18.80;50.20
12370;DHT22;6249;52.128;9.986;2023-04-07T10:37:24;19.00;50.10
12370;DHT22;6249;52.128;9.986;2023-04-07T10:40:48;19.40;51.20
12370;DHT22;6249;52.128;9.986;2023-04-07T10:44:15;19.80;47.60
12370;DHT22;6249;52.128;9.986;2023-04-07T10:51:23;20.40;45.50
12370;DHT22;6249;52.128;9.986;2023-04-07T10:54:43;20.90;43.70
12370;DHT22;6249;52.128;9.986;2023-04-07T11:01:43;21.40;44.70
12370;DHT22;6249;52.128;9.986;2023-04-07T11:05:06;21.70;43.40
12370;DHT22;6249;52.128;9.986;2023-04-07T11:08:39;22.60;41.60
12370;DHT22;6249;52.128;9.986;2023-04-07T11:12:03;22.70;41.40
12370;DHT22;6249;52.128;9.986;2023-04-07T11:15:27;23.20;40.30
12370;DHT22;6249;52.128;9.986;2023-04-07T11:18:50;23.90;38.90
12370;DHT22;6249;52.128;9.986;2023-04-07T11:22:18;24.50;36.10
12370;DHT22;6249;52.128;9.986;2023-04-07T11:25:44;24.70;35.30
12370;DHT22;6249;52.128;9.986;2023-04-07T11:29:05;24.50;35.30
12370;DHT22;6249;52.128;9.986;2023-04-07T11:32:25;25.00;34.90
12370;DHT22;6249;52.128;9.986;2023-04-07T11:35:54;25.40;34.60
12370;DHT22;6249;52.128;9.986;2023-04-07T11:39:19;25.80;32.00
12370;DHT22;6249;52.128;9.986;2023-04-07T11:42:42;25.60;30.80
12370;DHT22;6249;52.128;9.986;2023-04-07T11:46:11;25.30;31.20
12370;DHT22;6249;52.128;9.986;2023-04-07T11:49:31;25.40;31.20
12370;DHT22;6249;52.128;9.986;2023-04-07T11:52:52;25.50;30.70
12370;DHT22;6249;52.128;9.986;2023-04-07T11:56:18;25.60;31.00
12370;DHT22;6249;52.128;9.986;2023-04-07T11:59:39;25.70;29.80
12370;DHT22;6249;52.128;9.986;2023-04-07T12:03:09;25.50;29.70
12370;DHT22;6249;52.128;9.986;2023-04-07T12:06:34;25.80;30.00
12370;DHT22;6249;52.128;9.986;2023-04-07T12:10:13;26.70;30.40
12370;DHT22;6249;52.128;9.986;2023-04-07T12:13:39;27.30;30.00
12370;DHT22;6249;52.128;9.986;2023-04-07T12:17:00;28.00;28.90
12370;DHT22;6249;52.128;9.986;2023-04-07T12:20:23;27.90;28.70
12370;DHT22;6249;52.128;9.986;2023-04-07T12:23:44;28.00;27.80
12370;DHT22;6249;52.128;9.986;2023-04-07T12:27:07;27.90;28.60
12370;DHT22;6249;52.128;9.986;2023-04-07T12:30:28;28.20;28.20
12370;DHT22;6249;52.128;9.986;2023-04-07T12:33:48;28.30;28.70
12370;DHT22;6249;52.128;9.986;2023-04-07T12:37:11;28.80;27.60
12370;DHT22;6249;52.128;9.986;2023-04-07T12:40:34;29.00;27.00
12370;DHT22;6249;52.128;9.986;2023-04-07T12:43:55;29.00;26.40
12370;DHT22;6249;52.128;9.986;2023-04-07T12:47:16;28.70;27.00
12370;DHT22;6249;52.128;9.986;2023-04-07T12:50:39;28.70;27.00
12370;DHT22;6249;52.128;9.986;2023-04-07T12:54:04;29.00;27.80
12370;DHT22;6249;52.128;9.986;2023-04-07T12:57:27;29.10;27.30
12370;DHT22;6249;52.128;9.986;2023-04-07T13:00:52;28.70;27.50
12370;DHT22;6249;52.128;9.986;2023-04-07T13:04:12;28.50;28.20
12370;DHT22;6249;52.128;9.986;2023-04-07T13:07:33;28.90;28.30
12370;DHT22;6249;52.128;9.986;2023-04-07T13:10:56;29.10;28.10
12370;DHT22;6249;52.128;9.986;2023-04-07T13:14:19;29.40;27.60
12370;DHT22;6249;52.128;9.986;2023-04-07T13:17:42;29.70;27.60
12370;DHT22;6249;52.128;9.986;2023-04-07T13:21:08;29.50;28.00
12370;DHT22;6249;52.128;9.986;2023-04-07T13:24:29;30.00;26.80
12370;DHT22;6249;52.128;9.986;2023-04-07T13:27:49;29.60;27.00
12370;DHT22;6249;52.128;9.986;2023-04-07T13:31:13;29.40;27.10
12370;DHT22;6249;52.128;9.986;2023-04-07T13:34:38;29.80;26.90
12370;DHT22;6249;52.128;9.986;2023-04-07T13:38:02;30.10;26.90
12370;DHT22;6249;52.128;9.986;2023-04-07T13:41:23;30.60;26.40
12370;DHT22;6249;52.128;9.986;2023-04-07T13:44:43;31.10;26.40
12370;DHT22;6249;52.128;9.986;2023-04-07T13:48:10;31.50;26.30
12370;DHT22;6249;52.128;9.986;2023-04-07T13:51:30;30.80;26.60
12370;DHT22;6249;52.128;9.986;2023-04-07T13:54:52;30.80;25.70
12370;DHT22;6249;52.128;9.986;2023-04-07T13:58:12;31.00;25.50
12370;DHT22;6249;52.128;9.986;2023-04-07T14:01:33;31.10;25.30
12370;DHT22;6249;52.128;9.986;2023-04-07T14:05:00;31.40;24.70
12370;DHT22;6249;52.128;9.986;2023-04-07T14:08:21;32.20;24.50
12370;DHT22;6249;52.128;9.986;2023-04-07T14:11:42;32.50;23.90
12370;DHT22;6249;52.128;9.986;2023-04-07T14:15:03;31.90;25.00
12370;DHT22;6249;52.128;9.986;2023-04-07T14:18:24;32.30;24.60
12370;DHT22;6249;52.128;9.986;2023-04-07T14:21:47;32.60;24.10
12370;DHT22;6249;52.128;9.986;2023-04-07T14:25:10;32.80;23.40
12370;DHT22;6249;52.128;9.986;2023-04-07T14:28:31;32.90;22.70
12370;DHT22;6249;52.128;9.986;2023-04-07T14:31:54;31.90;23.70
12370;DHT22;6249;52.128;9.986;2023-04-07T14:35:15;31.70;23.60
12370;DHT22;6249;52.128;9.986;2023-04-07T14:38:35;32.20;23.20
12370;DHT22;6249;52.128;9.986;2023-04-07T14:41:58;32.40;23.00
12370;DHT22;6249;52.128;9.986;2023-04-07T14:45:20;32.40;23.60
12370;DHT22;6249;52.128;9.986;2023-04-07T14:48:44;32.50;24.10
12370;DHT22;6249;52.128;9.986;2023-04-07T14:52:05;32.50;22.90
12370;DHT22;6249;52.128;9.986;2023-04-07T14:55:26;32.70;22.80
12370;DHT22;6249;52.128;9.986;2023-04-07T14:58:47;33.00;21.80
12370;DHT22;6249;52.128;9.986;2023-04-07T15:02:09;32.90;22.40
12370;DHT22;6249;52.128;9.986;2023-04-07T15:05:30;32.50;22.70
12370;DHT22;6249;52.128;9.986;2023-04-07T15:08:53;32.40;22.00
12370;DHT22;6249;52.128;9.986;2023-04-07T15:12:14;32.30;21.50
12370;DHT22;6249;52.128;9.986;2023-04-07T15:15:34;31.90;21.30
12370;DHT22;6249;52.128;9.986;2023-04-07T15:18:55;31.70;21.90
12370;DHT22;6249;52.128;9.986;2023-04-07T15:22:18;31.80;21.70
12370;DHT22;6249;52.128;9.986;2023-04-07T15:25:39;31.70;21.80
12370;DHT22;6249;52.128;9.986;2023-04-07T15:28:59;31.70;21.60
12370;DHT22;6249;52.128;9.986;2023-04-07T15:32:20;31.10;21.60
12370;DHT22;6249;52.128;9.986;2023-04-07T15:35:46;31.40;22.10
12370;DHT22;6249;52.128;9.986;2023-04-07T15:39:06;31.70;21.60
12370;DHT22;6249;52.128;9.986;2023-04-07T15:42:27;31.40;22.30
12370;DHT22;6249;52.128;9.986;2023-04-07T15:45:48;31.10;22.50
12370;DHT22;6249;52.128;9.986;2023-04-07T15:49:08;31.10;23.10
12370;DHT22;6249;52.128;9.986;2023-04-07T15:52:31;31.10;23.70
12370;DHT22;6249;52.128;9.986;2023-04-07T15:55:52;30.90;23.70
12370;DHT22;6249;52.128;9.986;2023-04-07T15:59:13;30.00;24.50
12370;DHT22;6249;52.128;9.986;2023-04-07T16:02:38;30.10;24.90
12370;DHT22;6249;52.128;9.986;2023-04-07T16:06:01;30.00;24.60
12370;DHT22;6249;52.128;9.986;2023-04-07T16:09:22;29.80;24.40
12370;DHT22;6249;52.128;9.986;2023-04-07T16:12:45;30.10;24.40
12370;DHT22;6249;52.128;9.986;2023-04-07T16:16:05;29.90;24.40
12370;DHT22;6249;52.128;9.986;2023-04-07T16:19:26;30.40;24.00
12370;DHT22;6249;52.128;9.986;2023-04-07T16:22:49;30.30;24.00
12370;DHT22;6249;52.128;9.986;2023-04-07T16:26:10;30.10;24.10
12370;DHT22;6249;52.128;9.986;2023-04-07T16:29:30;30.10;24.00
12370;DHT22;6249;52.128;9.986;2023-04-07T16:32:53;29.30;24.00
12370;DHT22;6249;52.128;9.986;2023-04-07T16:36:16;29.30;23.90
12370;DHT22;6249;52.128;9.986;2023-04-07T16:39:39;28.60;23.80
12370;DHT22;6249;52.128;9.986;2023-04-07T16:43:00;28.10;24.80
12370;DHT22;6249;52.128;9.986;2023-04-07T16:46:26;26.40;25.70
12370;DHT22;6249;52.128;9.986;2023-04-07T16:49:47;24.30;27.40
12370;DHT22;6249;52.128;9.986;2023-04-07T16:53:07;23.80;29.20
12370;DHT22;6249;52.128;9.986;2023-04-07T16:56:28;23.20;29.60
12370;DHT22;6249;52.128;9.986;2023-04-07T16:59:53;22.50;29.80
12370;DHT22;6249;52.128;9.986;2023-04-07T17:03:14;21.90;30.00
12370;DHT22;6249;52.128;9.986;2023-04-07T17:06:37;21.30;30.20
12370;DHT22;6249;52.128;9.986;2023-04-07T17:09:57;20.70;31.00
12370;DHT22;6249;52.128;9.986;2023-04-07T17:13:18;20.00;33.10
12370;DHT22;6249;52.128;9.986;2023-04-07T17:16:41;19.50;33.10
12370;DHT22;6249;52.128;9.986;2023-04-07T17:20:02;19.10;33.70
12370;DHT22;6249;52.128;9.986;2023-04-07T17:23:26;18.50;34.30
12370;DHT22;6249;52.128;9.986;2023-04-07T17:26:50;18.10;34.60
12370;DHT22;6249;52.128;9.986;2023-04-07T17:30:13;17.70;35.30
12370;DHT22;6249;52.128;9.986;2023-04-07T17:33:33;16.80;35.80
12370;DHT22;6249;52.128;9.986;2023-04-07T17:36:54;16.70;36.50
12370;DHT22;6249;52.128;9.986;2023-04-07T17:40:15;16.70;37.70
12370;DHT22;6249;52.128;9.986;2023-04-07T17:43:35;16.40;38.80
12370;DHT22;6249;52.128;9.986;2023-04-07T17:47:01;16.10;40.10
12370;DHT22;6249;52.128;9.986;2023-04-07T17:50:21;15.70;41.40
12370;DHT22;6249;52.128;9.986;2023-04-07T17:53:45;15.50;42.40
12370;DHT22;6249;52.128;9.986;2023-04-07T17:57:08;15.10;43.50
12370;DHT22;6249;52.128;9.986;2023-04-07T18:00:29;14.70;44.60
12370;DHT22;6249;52.128;9.986;2023-04-07T18:03:51;14.30;45.50
12370;DHT22;6249;52.128;9.986;2023-04-07T18:07:14;14.20;47.00
12370;DHT22;6249;52.128;9.986;2023-04-07T18:10:35;13.90;47.90
12370;DHT22;6249;52.128;9.986;2023-04-07T18:13:59;13.50;48.60
12370;DHT22;6249;52.128;9.986;2023-04-07T18:17:19;13.30;49.80
12370;DHT22;6249;52.128;9.986;2023-04-07T18:20:40;13.10;50.90
12370;DHT22;6249;52.128;9.986;2023-04-07T18:24:01;13.00;51.00
12370;DHT22;6249;52.128;9.986;2023-04-07T18:27:22;12.70;51.60
12370;DHT22;6249;52.128;9.986;2023-04-07T18:30:44;12.30;53.00
12370;DHT22;6249;52.128;9.986;2023-04-07T18:34:05;12.20;54.70
12370;DHT22;6249;52.128;9.986;2023-04-07T18:37:28;12.20;55.80
12370;DHT22;6249;52.128;9.986;2023-04-07T18:40:51;12.20;55.70
12370;DHT22;6249;52.128;9.986;2023-04-07T18:44:14;12.00;56.40
12370;DHT22;6249;52.128;9.986;2023-04-07T18:47:35;11.90;57.60
12370;DHT22;6249;52.128;9.986;2023-04-07T18:50:57;11.80;58.10
12370;DHT22;6249;52.128;9.986;2023-04-07T18:54:18;11.70;59.10
12370;DHT22;6249;52.128;9.986;2023-04-07T18:57:38;11.70;60.30
12370;DHT22;6249;52.128;9.986;2023-04-07T19:01:01;11.50;61.10
12370;DHT22;6249;52.128;9.986;2023-04-07T19:04:22;11.50;61.10
12370;DHT22;6249;52.128;9.986;2023-04-07T19:07:48;11.40;62.00
12370;DHT22;6249;52.128;9.986;2023-04-07T19:11:11;11.30;64.00
12370;DHT22;6249;52.128;9.986;2023-04-07T19:14:34;11.10;64.10
12370;DHT22;6249;52.128;9.986;2023-04-07T19:17:54;11.00;66.30
12370;DHT22;6249;52.128;9.986;2023-04-07T19:21:15;10.90;66.60
12370;DHT22;6249;52.128;9.986;2023-04-07T19:24:38;10.90;66.70
12370;DHT22;6249;52.128;9.986;2023-04-07T19:28:04;10.90;67.30
12370;DHT22;6249;52.128;9.986;2023-04-07T19:31:27;10.80;68.30
12370;DHT22;6249;52.128;9.986;2023-04-07T19:34:52;10.50;68.70
12370;DHT22;6249;52.128;9.986;2023-04-07T19:38:13;10.40;70.50
12370;DHT22;6249;52.128;9.986;2023-04-07T19:41:33;10.50;71.50
12370;DHT22;6249;52.128;9.986;2023-04-07T19:44:56;10.40;73.20
12370;DHT22;6249;52.128;9.986;2023-04-07T19:48:19;10.30;73.70
12370;DHT22;6249;52.128;9.986;2023-04-07T19:51:40;10.10;75.20
12370;DHT22;6249;52.128;9.986;2023-04-07T19:55:01;10.10;77.30
12370;DHT22;6249;52.128;9.986;2023-04-07T19:58:25;10.00;79.10
12370;DHT22;6249;52.128;9.986;2023-04-07T20:01:45;9.90;82.10
12370;DHT22;6249;52.128;9.986;2023-04-07T20:05:11;10.00;84.00
12370;DHT22;6249;52.128;9.986;2023-04-07T20:08:32;10.20;87.20
12370;DHT22;6249;52.128;9.986;2023-04-07T20:11:53;10.20;89.80
12370;DHT22;6249;52.128;9.986;2023-04-07T20:15:16;10.00;91.30
12370;DHT22;6249;52.128;9.986;2023-04-07T20:18:39;10.10;92.90
12370;DHT22;6249;52.128;9.986;2023-04-07T20:22:00;10.10;94.20
12370;DHT22;6249;52.128;9.986;2023-04-07T20:25:22;10.20;95.20
12370;DHT22;6249;52.128;9.986;2023-04-07T20:28:48;10.20;96.30
12370;DHT22;6249;52.128;9.986;2023-04-07T20:32:13;10.10;97.60
12370;DHT22;6249;52.128;9.986;2023-04-07T20:35:34;10.20;98.80
12370;DHT22;6249;52.128;9.986;2023-04-07T20:38:57;10.20;99.70
12370;DHT22;6249;52.128;9.986;2023-04-07T20:42:20;10.00;99.90
12370;DHT22;6249;52.128;9.986;2023-04-07T20:45:41;9.90;99.90
12370;DHT22;6249;52.128;9.986;2023-04-07T20:49:02;9.80;99.90
12370;DHT22;6249;52.128;9.986;2023-04-07T20:52:24;9.50;99.90
12370;DHT22;6249;52.128;9.986;2023-04-07T20:55:46;9.60;99.90
12370;DHT22;6249;52.128;9.986;2023-04-07T20:59:07;9.60;99.90
12370;DHT22;6249;52.128;9.986;2023-04-07T21:02:30;9.80;99.90
12370;DHT22;6249;52.128;9.986;2023-04-07T21:05:51;9.90;99.90
12370;DHT22;6249;52.128;9.986;2023-04-07T21:09:14;9.60;99.90
12370;DHT22;6249;52.128;9.986;2023-04-07T21:12:37;9.60;99.90
12370;DHT22;6249;52.128;9.986;2023-04-07T21:15:58;9.50;99.90
12370;DHT22;6249;52.128;9.986;2023-04-07T21:19:20;9.40;99.90
12370;DHT22;6249;52.128;9.986;2023-04-07T21:22:41;9.60;99.90
12370;DHT22;6249;52.128;9.986;2023-04-07T21:26:02;9.70;99.90
12370;DHT22;6249;52.128;9.986;2023-04-07T21:29:28;9.50;99.90
12370;DHT22;6249;52.128;9.986;2023-04-07T21:32:50;9.50;99.90
12370;DHT22;6249;52.128;9.986;2023-04-07T21:36:12;9.30;99.90
12370;DHT22;6249;52.128;9.986;2023-04-07T21:39:34;9.30;99.90
12370;DHT22;6249;52.128;9.986;2023-04-07T21:42:57;9.30;99.90
12370;DHT22;6249;52.128;9.986;2023-04-07T21:46:17;9.30;99.90
12370;DHT22;6249;52.128;9.986;2023-04-07T21:49:38;9.30;99.90
12370;DHT22;6249;52.128;9.986;2023-04-07T21:53:01;9.40;99.90
12370;DHT22;6249;52.128;9.986;2023-04-07T21:56:22;9.40;99.90
12370;DHT22;6249;52.128;9.986;2023-04-07T21:59:45;9.30;99.90
12370;DHT22;6249;52.128;9.986;2023-04-07T22:03:07;9.20;99.90
12370;DHT22;6249;52.128;9.986;2023-04-07T22:06:31;9.00;99.90
12370;DHT22;6249;52.128;9.986;2023-04-07T22:09:54;9.00;99.90